createdAt,value
2018-08-04T00:02:09.768Z,100.00
2018-08-04T00:04:38.626Z,100.00
2018-08-04T00:07:07.529Z,100.00
2018-08-04T00:09:36.371Z,100.00
2018-08-04T00:12:05.335Z,100.00
2018-08-04T00:14:34.236Z,95.06
2018-08-04T00:17:03.131Z,99.03
2018-08-04T00:19:31.971Z,100.00
2018-08-04T00:22:00.832Z,100.00
2018-08-04T00:24:29.583Z,100.00
2018-08-04T00:26:58.430Z,100.00
2018-08-04T00:29:27.312Z,100.00
2018-08-04T00:31:56.152Z,99.89
2018-08-04T00:34:25.006Z,100.00
2018-08-04T00:36:53.867Z,100.00
2018-08-04T00:39:22.642Z,96.86
2018-08-04T00:41:51.414Z,95.41
2018-08-04T00:44:20.382Z,97.02
2018-08-04T00:46:49.231Z,98.24
2018-08-04T00:49:18.072Z,94.49
2018-08-04T00:51:46.970Z,91.86
2018-08-04T00:54:15.777Z,89.88
2018-08-04T00:56:44.538Z,88.63
2018-08-04T00:59:13.411Z,85.03
2018-08-04T01:01:42.241Z,82.34
2018-08-04T01:04:11.087Z,82.49
2018-08-04T01:06:39.983Z,80.04
2018-08-04T01:09:10.168Z,76.54
2018-08-04T01:11:39.042Z,73.15
2018-08-04T01:14:08.065Z,72.67
2018-08-04T01:16:36.930Z,71.97
2018-08-04T01:19:05.798Z,72.61
2018-08-04T01:21:34.654Z,74.61
2018-08-04T01:24:03.451Z,73.28
2018-08-04T01:26:32.262Z,72.99
2018-08-04T01:29:01.110Z,71.74
2018-08-04T01:31:29.995Z,71.40
2018-08-04T01:33:58.874Z,69.56
2018-08-04T01:36:27.746Z,69.96
2018-08-04T01:38:56.606Z,70.96
2018-08-04T01:41:25.430Z,72.19
2018-08-04T01:43:54.391Z,70.91
2018-08-04T01:46:23.230Z,72.11
2018-08-04T01:48:52.036Z,71.63
2018-08-04T01:51:20.917Z,72.56
2018-08-04T01:53:49.742Z,71.85
2018-08-04T01:56:18.664Z,72.29
2018-08-04T01:58:47.526Z,73.16
2018-08-04T02:01:16.350Z,74.49
2018-08-04T02:03:45.103Z,74.31
2018-08-04T02:06:13.977Z,75.87
2018-08-04T02:08:42.831Z,75.89
2018-08-04T02:11:11.645Z,75.35
2018-08-04T02:13:40.450Z,75.15
2018-08-04T02:16:09.263Z,74.55
2018-08-04T02:18:38.060Z,76.82
2018-08-04T02:21:06.982Z,76.41
2018-08-04T02:23:35.766Z,76.71
2018-08-04T02:26:04.605Z,76.17
2018-08-04T02:28:33.535Z,79.33
2018-08-04T02:31:02.423Z,78.69
2018-08-04T02:33:31.264Z,83.13
2018-08-04T02:36:00.046Z,98.88
2018-08-04T02:38:28.814Z,100.00
2018-08-04T02:40:57.584Z,100.00
2018-08-04T02:43:26.425Z,100.00
2018-08-04T02:45:55.283Z,100.00
2018-08-04T02:48:24.122Z,100.00
2018-08-04T02:50:52.981Z,100.00
2018-08-04T02:53:21.770Z,100.00
2018-08-04T02:55:50.583Z,100.00
2018-08-04T02:58:19.516Z,100.00
2018-08-04T03:00:48.369Z,100.00
2018-08-04T03:03:17.144Z,100.00
2018-08-04T03:05:45.973Z,100.00
2018-08-04T03:08:14.754Z,100.00
2018-08-04T03:10:43.525Z,100.00
2018-08-04T03:13:12.347Z,100.00
2018-08-04T03:15:41.174Z,100.00
2018-08-04T03:18:10.048Z,100.00
2018-08-04T03:20:38.882Z,100.00
2018-08-04T03:23:07.804Z,100.00
2018-08-04T03:25:36.597Z,100.00
2018-08-04T03:28:05.442Z,100.00
2018-08-04T03:30:34.344Z,100.00
2018-08-04T03:33:03.217Z,100.00
2018-08-04T03:35:32.137Z,100.00
2018-08-04T03:38:01.020Z,100.00
2018-08-04T03:40:29.787Z,100.00
2018-08-04T03:42:58.643Z,100.00
2018-08-04T03:45:27.492Z,100.00
2018-08-04T03:47:56.393Z,100.00
2018-08-04T03:50:25.278Z,100.00
2018-08-04T03:52:54.081Z,100.00
2018-08-04T03:55:22.920Z,100.00
2018-08-04T03:57:51.762Z,100.00
2018-08-04T04:00:20.633Z,100.00
2018-08-04T04:02:49.383Z,100.00
2018-08-04T04:05:18.204Z,100.00
2018-08-04T04:07:46.993Z,100.00
2018-08-04T04:10:16.132Z,100.00
2018-08-04T04:12:45.020Z,100.00
2018-08-04T04:15:13.915Z,100.00
2018-08-04T04:17:49.823Z,100.00
2018-08-04T04:20:20.688Z,100.00
2018-08-04T04:22:49.908Z,100.00
2018-08-04T04:25:18.778Z,100.00
2018-08-04T04:27:47.630Z,100.00
2018-08-04T04:30:16.498Z,100.00
2018-08-04T04:32:45.393Z,100.00
2018-08-04T04:35:14.220Z,100.00
2018-08-04T04:37:43.047Z,100.00
2018-08-04T04:40:11.979Z,100.00
2018-08-04T04:42:40.817Z,100.00
2018-08-04T04:45:09.686Z,100.00
2018-08-04T04:47:38.644Z,100.00
2018-08-04T04:50:07.495Z,100.00
2018-08-04T04:52:36.396Z,100.00
2018-08-04T04:55:05.587Z,100.00
2018-08-04T04:57:34.456Z,100.00
2018-08-04T05:00:03.399Z,100.00
2018-08-04T05:02:32.228Z,100.00
2018-08-04T05:05:01.661Z,100.00
2018-08-04T05:07:30.504Z,100.00
2018-08-04T05:09:59.409Z,100.00
2018-08-04T05:12:28.223Z,100.00
2018-08-04T05:14:57.085Z,100.00
2018-08-04T05:17:26.126Z,100.00
2018-08-04T05:19:55.042Z,100.00
2018-08-04T05:22:24.000Z,100.00
2018-08-04T05:24:53.066Z,100.00
2018-08-04T05:27:21.913Z,100.00
2018-08-04T05:29:50.781Z,100.00
2018-08-04T05:32:19.796Z,100.00
2018-08-04T05:34:48.690Z,100.00
2018-08-04T05:37:17.697Z,100.00
2018-08-04T05:39:46.602Z,100.00
2018-08-04T05:42:15.481Z,100.00
2018-08-04T05:44:44.394Z,100.00
2018-08-04T05:47:14.421Z,100.00
2018-08-04T05:49:43.513Z,100.00
2018-08-04T05:52:12.418Z,100.00
2018-08-04T05:54:41.296Z,100.00
2018-08-04T05:57:10.220Z,100.00
2018-08-04T05:59:39.074Z,100.00
2018-08-04T06:02:08.221Z,100.00
2018-08-04T06:04:37.097Z,100.00
2018-08-04T06:07:06.107Z,100.00
2018-08-04T06:09:35.051Z,100.00
2018-08-04T06:12:04.078Z,100.00
2018-08-04T06:14:33.044Z,100.00
2018-08-04T06:17:02.071Z,98.20
2018-08-04T06:19:30.984Z,100.00
2018-08-04T06:21:59.920Z,100.00
2018-08-04T06:24:28.867Z,98.76
2018-08-04T06:26:57.708Z,96.55
2018-08-04T06:29:26.689Z,99.70
2018-08-04T06:31:55.628Z,100.00
2018-08-04T06:34:24.555Z,100.00
2018-08-04T06:36:54.038Z,94.39
2018-08-04T06:39:22.983Z,91.73
2018-08-04T06:41:51.929Z,87.60
2018-08-04T06:44:20.851Z,92.86
2018-08-04T06:46:50.040Z,83.30
2018-08-04T06:49:18.985Z,84.45
2018-08-04T06:51:47.944Z,77.71
2018-08-04T06:54:16.983Z,72.91
2018-08-04T06:56:45.980Z,70.04
2018-08-04T06:59:14.919Z,75.54
2018-08-04T07:01:43.886Z,66.62
2018-08-04T07:04:12.901Z,68.65
2018-08-04T07:06:41.819Z,66.44
2018-08-04T07:09:11.131Z,67.35
2018-08-04T07:11:40.974Z,61.89
2018-08-04T07:14:09.895Z,59.81
2018-08-04T07:16:39.150Z,61.16
2018-08-04T07:19:08.170Z,58.46
2018-08-04T07:21:37.185Z,65.83
2018-08-04T07:24:07.058Z,60.09
2018-08-04T07:26:36.078Z,59.18
2018-08-04T07:29:05.128Z,55.27
2018-08-04T07:31:34.162Z,54.27
2018-08-04T07:34:03.092Z,50.59
2018-08-04T07:36:32.122Z,50.95
2018-08-04T07:39:01.130Z,49.05
2018-08-04T07:41:30.112Z,49.11
2018-08-04T07:43:59.078Z,47.98
2018-08-04T07:46:28.056Z,47.32
2018-08-04T07:48:57.033Z,46.55
2018-08-04T07:51:25.936Z,46.48
2018-08-04T07:53:54.815Z,45.24
2018-08-04T07:56:23.705Z,42.73
2018-08-04T07:58:52.659Z,42.70
2018-08-04T08:01:21.604Z,46.04
2018-08-04T08:03:50.575Z,43.79
2018-08-04T08:06:19.626Z,44.14
2018-08-04T08:08:48.634Z,43.46
2018-08-04T08:11:17.694Z,46.66
2018-08-04T08:13:46.675Z,44.48
2018-08-04T08:16:15.800Z,43.83
2018-08-04T08:18:45.366Z,41.33
2018-08-04T08:21:14.346Z,41.42
2018-08-04T08:23:43.477Z,45.16
2018-08-04T08:26:14.565Z,46.54
2018-08-04T08:28:43.810Z,45.46
2018-08-04T08:31:12.826Z,41.22
2018-08-04T08:33:41.871Z,40.10
2018-08-04T08:36:11.040Z,37.68
2018-08-04T08:38:40.096Z,38.87
2018-08-04T08:41:09.968Z,36.85
2018-08-04T08:43:38.986Z,38.29
2018-08-04T08:46:08.017Z,38.05
2018-08-04T08:48:36.880Z,38.35
2018-08-04T08:51:06.026Z,35.17
2018-08-04T08:53:35.065Z,36.80
2018-08-04T08:56:03.870Z,36.60
2018-08-04T08:58:32.892Z,36.00
2018-08-04T09:01:01.861Z,36.94
2018-08-04T09:03:30.902Z,35.46
2018-08-04T09:05:59.790Z,38.13
2018-08-04T09:08:28.790Z,35.27
2018-08-04T09:10:57.894Z,40.16
2018-08-04T09:13:26.856Z,35.26
2018-08-04T09:15:55.827Z,34.38
2018-08-04T09:18:24.806Z,35.30
2018-08-04T09:20:54.871Z,35.84
2018-08-04T09:23:24.151Z,34.67
2018-08-04T09:25:53.091Z,36.47
2018-08-04T09:28:22.000Z,36.30
2018-08-04T09:30:51.162Z,35.40
2018-08-04T09:33:20.169Z,36.83
2018-08-04T09:35:49.208Z,36.96
2018-08-04T09:38:18.271Z,36.67
2018-08-04T09:40:47.194Z,38.11
2018-08-04T09:43:16.172Z,40.76
2018-08-04T09:45:45.642Z,43.60
2018-08-04T09:48:14.698Z,38.68
2018-08-04T09:50:43.635Z,37.09
2018-08-04T09:53:12.634Z,37.99
2018-08-04T09:55:41.641Z,38.98
2018-08-04T09:58:10.649Z,38.53
2018-08-04T10:00:44.661Z,38.30
2018-08-04T10:03:13.670Z,34.11
2018-08-04T10:05:42.692Z,37.36
2018-08-04T10:08:12.584Z,35.58
2018-08-04T10:10:41.526Z,33.29
2018-08-04T10:13:10.432Z,38.04
2018-08-04T10:15:39.485Z,34.76
2018-08-04T10:18:08.441Z,39.01
2018-08-04T10:20:37.346Z,38.12
2018-08-04T10:23:06.484Z,35.56
2018-08-04T10:25:35.627Z,35.31
2018-08-04T10:28:04.642Z,34.52
2018-08-04T10:30:33.536Z,35.08
2018-08-04T10:33:02.401Z,33.89
2018-08-04T10:35:31.925Z,36.25
2018-08-04T10:38:00.811Z,33.54
2018-08-04T10:40:29.783Z,37.33
2018-08-04T10:42:58.648Z,33.96
2018-08-04T10:45:27.645Z,36.74
2018-08-04T10:47:56.909Z,39.33
2018-08-04T10:50:25.934Z,38.37
2018-08-04T10:52:54.956Z,39.31
2018-08-04T10:55:23.790Z,40.54
2018-08-04T10:57:52.640Z,38.21
2018-08-04T11:00:21.551Z,42.00
2018-08-04T11:02:50.439Z,40.25
2018-08-04T11:05:19.232Z,40.36
2018-08-04T11:07:48.116Z,37.50
2018-08-04T11:10:16.906Z,38.56
2018-08-04T11:12:45.681Z,33.74
2018-08-04T11:15:14.488Z,34.71
2018-08-04T11:17:43.355Z,35.81
2018-08-04T11:20:12.300Z,33.14
2018-08-04T11:22:41.103Z,34.69
2018-08-04T11:25:09.893Z,36.88
2018-08-04T11:27:38.733Z,35.85
2018-08-04T11:30:08.508Z,36.02
2018-08-04T11:32:37.476Z,32.53
2018-08-04T11:35:06.523Z,37.54
2018-08-04T11:37:35.400Z,34.50
2018-08-04T11:40:04.399Z,33.60
2018-08-04T11:42:33.218Z,34.51
2018-08-04T11:45:02.078Z,30.99
2018-08-04T11:47:30.960Z,33.24
2018-08-04T11:49:59.766Z,30.68
2018-08-04T11:52:28.575Z,30.42
2018-08-04T11:54:57.394Z,30.54
2018-08-04T11:57:26.139Z,31.89
2018-08-04T11:59:54.936Z,33.53
2018-08-04T12:02:23.737Z,30.25
2018-08-04T12:04:52.553Z,34.40
2018-08-04T12:07:21.355Z,30.95
2018-08-04T12:09:50.161Z,34.46
2018-08-04T12:12:18.954Z,35.76
2018-08-04T12:14:47.792Z,35.65
2018-08-04T12:17:16.576Z,33.97
2018-08-04T12:19:45.332Z,35.92
2018-08-04T12:22:14.187Z,34.49
2018-08-04T12:24:42.929Z,32.88
2018-08-04T12:27:11.698Z,32.75
2018-08-04T12:29:40.556Z,29.22
2018-08-04T12:32:09.357Z,28.50
2018-08-04T12:34:38.115Z,29.99
2018-08-04T12:37:07.091Z,30.92
2018-08-04T12:39:35.877Z,28.90
2018-08-04T12:42:04.795Z,28.50
2018-08-04T12:44:33.619Z,28.64
2018-08-04T12:47:02.411Z,30.41
2018-08-04T12:49:31.193Z,29.38
2018-08-04T12:52:00.045Z,28.41
2018-08-04T12:54:28.836Z,29.27
2018-08-04T12:56:57.634Z,29.79
2018-08-04T12:59:26.444Z,28.33
2018-08-04T13:01:55.252Z,30.95
2018-08-04T13:04:24.026Z,31.62
2018-08-04T13:06:52.945Z,29.05
2018-08-04T13:09:21.768Z,28.74
2018-08-04T13:11:50.599Z,30.64
2018-08-04T13:14:19.389Z,29.27
2018-08-04T13:16:48.291Z,28.95
2018-08-04T13:19:17.086Z,27.84
2018-08-04T13:21:45.935Z,27.95
2018-08-04T13:24:14.764Z,29.81
2018-08-04T13:26:43.549Z,30.20
2018-08-04T13:29:12.319Z,29.83
2018-08-04T13:31:41.091Z,29.61
2018-08-04T13:34:09.931Z,29.18
2018-08-04T13:36:38.732Z,28.33
2018-08-04T13:39:09.154Z,31.39
2018-08-04T13:41:38.433Z,28.74
2018-08-04T13:44:07.435Z,27.88
2018-08-04T13:46:36.324Z,27.99
2018-08-04T13:49:05.191Z,29.50
2018-08-04T13:51:33.977Z,29.97
2018-08-04T13:54:02.783Z,31.49
2018-08-04T13:56:31.670Z,33.44
2018-08-04T13:59:00.525Z,35.60
2018-08-04T14:01:29.401Z,34.07
2018-08-04T14:03:58.305Z,33.46
2018-08-04T14:06:27.193Z,33.86
2018-08-04T14:08:56.010Z,35.93
2018-08-04T14:11:24.891Z,35.62
2018-08-04T14:13:53.777Z,38.75
2018-08-04T14:16:22.622Z,37.75
2018-08-04T14:18:51.492Z,37.95
2018-08-04T14:21:20.384Z,37.66
2018-08-04T14:23:49.293Z,36.83
2018-08-04T14:26:18.125Z,35.83
2018-08-04T14:28:47.077Z,35.26
2018-08-04T14:31:15.858Z,35.45
2018-08-04T14:33:44.680Z,33.62
2018-08-04T14:36:13.584Z,33.47
2018-08-04T14:38:42.366Z,34.21
2018-08-04T14:41:11.199Z,35.52
2018-08-04T14:43:40.009Z,34.16
2018-08-04T14:46:09.269Z,33.85
2018-08-04T14:48:38.114Z,33.28
2018-08-04T14:51:06.890Z,34.48
2018-08-04T14:53:35.731Z,31.27
2018-08-04T14:56:04.632Z,31.11
2018-08-04T14:58:33.463Z,28.76
2018-08-04T15:01:02.282Z,31.16
2018-08-04T15:03:31.070Z,30.01
2018-08-04T15:05:59.854Z,30.22
2018-08-04T15:08:28.697Z,31.17
2018-08-04T15:10:57.510Z,33.70
2018-08-04T15:13:26.384Z,34.00
2018-08-04T15:15:55.199Z,29.75
2018-08-04T15:18:24.833Z,29.52
2018-08-04T15:20:53.650Z,29.58
2018-08-04T15:23:22.435Z,29.95
2018-08-04T15:25:51.245Z,31.01
2018-08-04T15:28:20.091Z,32.31
2018-08-04T15:30:49.508Z,35.71
2018-08-04T15:33:18.437Z,32.40
2018-08-04T15:35:47.233Z,31.68
2018-08-04T15:38:16.085Z,32.98
2018-08-04T15:40:44.953Z,33.72
2018-08-04T15:43:13.836Z,32.91
2018-08-04T15:45:42.605Z,33.36
2018-08-04T15:48:11.493Z,33.49
2018-08-04T15:50:40.434Z,35.77
2018-08-04T15:53:09.308Z,34.32
2018-08-04T15:55:39.119Z,36.20
2018-08-04T15:58:08.021Z,37.81
2018-08-04T16:00:36.893Z,37.77
2018-08-04T16:03:05.933Z,36.93
2018-08-04T16:05:34.822Z,38.37
2018-08-04T16:08:03.764Z,35.77
2018-08-04T16:10:32.662Z,34.52
2018-08-04T16:13:01.466Z,37.04
2018-08-04T16:15:30.329Z,35.98
2018-08-04T16:17:59.378Z,35.91
2018-08-04T16:20:28.236Z,38.80
2018-08-04T16:22:57.063Z,36.42
2018-08-04T16:25:26.010Z,35.50
2018-08-04T16:27:54.840Z,35.66
2018-08-04T16:30:23.671Z,38.09
2018-08-04T16:32:52.538Z,39.55
2018-08-04T16:35:21.421Z,40.14
2018-08-04T16:37:50.273Z,40.40
2018-08-04T16:40:19.168Z,40.90
2018-08-04T16:42:48.032Z,42.61
2018-08-04T16:45:16.878Z,41.86
2018-08-04T16:47:45.717Z,42.36
2018-08-04T16:50:14.560Z,43.78
2018-08-04T16:52:43.393Z,43.70
2018-08-04T16:55:12.308Z,44.00
2018-08-04T16:57:41.083Z,42.83
2018-08-04T17:00:09.947Z,43.29
2018-08-04T17:02:38.880Z,42.93
2018-08-04T17:05:07.729Z,42.59
2018-08-04T17:07:36.557Z,41.29
2018-08-04T17:10:05.725Z,41.04
2018-08-04T17:12:34.546Z,40.57
2018-08-04T17:15:03.602Z,41.34
2018-08-04T17:17:32.516Z,40.35
2018-08-04T17:20:01.333Z,40.43
2018-08-04T17:22:30.178Z,38.70
2018-08-04T17:24:59.076Z,39.08
2018-08-04T17:27:27.863Z,40.39
2018-08-04T17:29:56.682Z,40.93
2018-08-04T17:32:25.559Z,42.42
2018-08-04T17:34:54.348Z,40.95
2018-08-04T17:37:23.437Z,41.36
2018-08-04T17:39:52.344Z,41.54
2018-08-04T17:42:21.188Z,44.03
2018-08-04T17:44:50.097Z,42.09
2018-08-04T17:47:19.086Z,42.93
2018-08-04T17:49:47.941Z,42.56
2018-08-04T17:52:16.823Z,41.86
2018-08-04T17:54:45.742Z,42.65
2018-08-04T17:57:14.680Z,42.89
2018-08-04T17:59:43.487Z,43.32
2018-08-04T18:02:12.399Z,43.77
2018-08-04T18:04:41.276Z,44.33
2018-08-04T18:07:10.138Z,44.14
2018-08-04T18:09:39.000Z,45.09
2018-08-04T18:12:07.868Z,45.04
2018-08-04T18:14:36.681Z,44.65
2018-08-04T18:17:05.716Z,45.75
2018-08-04T18:19:34.500Z,46.72
2018-08-04T18:22:03.333Z,47.17
2018-08-04T18:24:32.154Z,47.04
2018-08-04T18:27:00.976Z,47.46
2018-08-04T18:29:30.333Z,47.82
2018-08-04T18:31:59.411Z,48.04
2018-08-04T18:34:28.238Z,48.85
2018-08-04T18:36:57.093Z,51.81
2018-08-04T18:39:25.898Z,50.55
2018-08-04T18:41:54.846Z,51.10
2018-08-04T18:44:23.708Z,49.68
2018-08-04T18:46:52.538Z,46.58
2018-08-04T18:49:21.375Z,46.09
2018-08-04T18:51:50.210Z,45.75
2018-08-04T18:54:19.092Z,46.19
2018-08-04T18:56:47.980Z,44.99
2018-08-04T18:59:16.770Z,44.95
2018-08-04T19:01:45.583Z,43.61
2018-08-04T19:04:14.361Z,43.01
2018-08-04T19:06:43.248Z,42.91
2018-08-04T19:09:12.743Z,42.44
2018-08-04T19:11:41.586Z,41.94
2018-08-04T19:14:11.123Z,41.93
2018-08-04T19:16:39.959Z,42.26
2018-08-04T19:19:08.851Z,41.45
2018-08-04T19:21:37.763Z,41.19
2018-08-04T19:24:07.284Z,41.73
2018-08-04T19:26:36.162Z,41.11
2018-08-04T19:29:05.094Z,40.57
2018-08-04T19:31:34.006Z,40.41
2018-08-04T19:34:02.806Z,40.96
2018-08-04T19:36:31.695Z,41.39
2018-08-04T19:39:00.510Z,42.36
2018-08-04T19:41:29.339Z,41.82
2018-08-04T19:43:58.259Z,40.40
2018-08-04T19:46:27.101Z,42.58
2018-08-04T19:48:55.994Z,43.30
2018-08-04T19:51:24.790Z,45.30
2018-08-04T19:53:53.682Z,42.48
2018-08-04T19:56:22.585Z,43.41
2018-08-04T19:58:51.442Z,44.50
2018-08-04T20:01:20.347Z,44.12
2018-08-04T20:03:49.251Z,46.17
2018-08-04T20:06:18.194Z,43.53
2018-08-04T20:08:47.008Z,45.93
2018-08-04T20:11:15.868Z,46.44
2018-08-04T20:13:44.636Z,46.27
2018-08-04T20:16:13.551Z,45.92
2018-08-04T20:18:42.428Z,45.94
2018-08-04T20:21:11.362Z,46.55
2018-08-04T20:23:40.288Z,45.18
2018-08-04T20:26:09.127Z,45.88
2018-08-04T20:28:37.924Z,44.79
2018-08-04T20:31:06.814Z,44.31
2018-08-04T20:33:35.757Z,44.38
2018-08-04T20:36:04.642Z,45.79
2018-08-04T20:38:33.570Z,46.53
2018-08-04T20:41:02.771Z,46.66
2018-08-04T20:43:31.628Z,47.79
2018-08-04T20:46:00.481Z,49.59
2018-08-04T20:48:29.340Z,48.20
2018-08-04T20:50:58.221Z,50.06
2018-08-04T20:53:27.266Z,49.59
2018-08-04T20:55:56.095Z,49.57
2018-08-04T20:58:24.986Z,48.87
2018-08-04T21:01:04.753Z,50.52
2018-08-04T21:03:33.584Z,53.49
2018-08-04T21:06:02.516Z,55.91
2018-08-04T21:08:31.404Z,56.59
2018-08-04T21:11:01.180Z,59.95
2018-08-04T21:13:30.043Z,57.02
2018-08-04T21:15:58.861Z,52.77
2018-08-04T21:18:27.710Z,58.31
2018-08-04T21:20:56.671Z,60.91
2018-08-04T21:23:25.408Z,61.48
2018-08-04T21:25:54.208Z,60.04
2018-08-04T21:28:23.011Z,60.14
2018-08-04T21:30:51.838Z,61.92
2018-08-04T21:33:20.642Z,63.89
2018-08-04T21:35:49.539Z,65.03
2018-08-04T21:38:18.284Z,64.81
2018-08-04T21:40:47.093Z,64.72
2018-08-04T21:43:15.918Z,65.85
2018-08-04T21:45:44.911Z,68.41
2018-08-04T21:48:13.739Z,65.55
2018-08-04T21:50:42.560Z,64.99
2018-08-04T21:53:11.434Z,65.51
2018-08-04T21:55:40.330Z,68.04
2018-08-04T21:58:09.196Z,69.26
2018-08-04T22:00:42.156Z,70.16
2018-08-04T22:03:11.003Z,68.16
2018-08-04T22:05:39.826Z,68.01
2018-08-04T22:08:19.635Z,70.14
2018-08-04T22:10:48.407Z,64.90
2018-08-04T22:13:17.267Z,62.17
2018-08-04T22:15:46.106Z,61.94
2018-08-04T22:18:14.857Z,66.44
2018-08-04T22:20:43.640Z,66.52
2018-08-04T22:23:12.589Z,68.68
2018-08-04T22:25:41.356Z,69.28
2018-08-04T22:28:10.261Z,69.23
2018-08-04T22:30:39.034Z,66.81
2018-08-04T22:33:07.771Z,66.67
2018-08-04T22:35:36.579Z,66.98
2018-08-04T22:38:05.564Z,67.53
2018-08-04T22:40:34.464Z,66.86
2018-08-04T22:43:03.268Z,69.20
2018-08-04T22:46:20.018Z,68.27
2018-08-04T22:48:50.215Z,67.69
2018-08-04T22:51:28.576Z,66.04
2018-08-04T22:53:57.584Z,65.67
2018-08-04T22:56:26.809Z,65.10
2018-08-04T22:58:55.636Z,63.41
2018-08-04T23:01:24.481Z,63.01
2018-08-04T23:03:53.439Z,63.65
2018-08-04T23:06:22.299Z,64.06
2018-08-04T23:08:51.129Z,63.30
2018-08-04T23:11:19.969Z,63.49
2018-08-04T23:13:49.103Z,63.32
2018-08-04T23:16:17.830Z,63.67
2018-08-04T23:18:46.681Z,71.16
2018-08-04T23:21:15.565Z,74.68
2018-08-04T23:23:44.326Z,70.25
2018-08-04T23:26:13.201Z,68.28
2018-08-04T23:28:42.034Z,68.17
2018-08-04T23:31:10.943Z,77.84
2018-08-04T23:33:39.688Z,72.03
2018-08-04T23:36:08.568Z,69.21
2018-08-04T23:38:37.353Z,68.89
2018-08-04T23:41:06.148Z,68.85
2018-08-04T23:43:34.944Z,68.07
2018-08-04T23:46:03.878Z,67.05
2018-08-04T23:48:32.675Z,66.15
2018-08-04T23:51:01.581Z,66.81
2018-08-04T23:53:30.372Z,68.20
2018-08-04T23:55:59.217Z,67.69
2018-08-04T23:58:28.083Z,68.23
